sensor_id;sensor_type;location;lat;lon;timestamp;temperature;humidity
22827;DHT22;11580;52.562;13.418;2023-08-17T00:01:49;23.00;36.20
22827;DHT22;11580;52.562;13.418;2023-08-17T00:04:17;23.00;36.30
22827;DHT22;11580;52.562;13.418;2023-08-17T00:06:44;23.00;36.40
22827;DHT22;11580;52.562;13.418;2023-08-17T00:09:12;23.00;36.40
22827;DHT22;11580;52.562;13.418;2023-08-17T00:11:41;22.90;36.40
22827;DHT22;11580;52.562;13.418;2023-08-17T00:14:08;22.90;36.70
22827;DHT22;11580;52.562;13.418;2023-08-17T00:16:35;22.90;36.60
22827;DHT22;11580;52.562;13.418;2023-08-17T00:19:03;22.90;36.70
22827;DHT22;11580;52.562;13.418;2023-08-17T00:21:30;22.90;36.70
22827;DHT22;11580;52.562;13.418;2023-08-17T00:23:57;22.80;36.70
22827;DHT22;11580;52.562;13.418;2023-08-17T00:26:24;22.80;36.80
22827;DHT22;11580;52.562;13.418;2023-08-17T00:28:55;22.80;36.80
22827;DHT22;11580;52.562;13.418;2023-08-17T00:31:22;22.80;37.10
22827;DHT22;11580;52.562;13.418;2023-08-17T00:33:50;22.80;36.90
22827;DHT22;11580;52.562;13.418;2023-08-17T00:36:17;22.70;37.60
22827;DHT22;11580;52.562;13.418;2023-08-17T00:38:44;22.70;37.00
22827;DHT22;11580;52.562;13.418;2023-08-17T00:41:11;22.70;37.10
22827;DHT22;11580;52.562;13.418;2023-08-17T00:43:38;22.60;37.10
22827;DHT22;11580;52.562;13.418;2023-08-17T00:46:07;22.60;37.10
22827;DHT22;11580;52.562;13.418;2023-08-17T00:48:35;22.60;37.40
22827;DHT22;11580;52.562;13.418;2023-08-17T00:51:03;22.50;37.20
22827;DHT22;11580;52.562;13.418;2023-08-17T00:53:32;22.50;37.30
22827;DHT22;11580;52.562;13.418;2023-08-17T00:56:01;22.50;37.50
22827;DHT22;11580;52.562;13.418;2023-08-17T00:58:29;22.50;37.60
22827;DHT22;11580;52.562;13.418;2023-08-17T01:00:57;22.50;38.20
22827;DHT22;11580;52.562;13.418;2023-08-17T01:03:28;22.40;37.50
22827;DHT22;11580;52.562;13.418;2023-08-17T01:05:56;22.40;38.10
22827;DHT22;11580;52.562;13.418;2023-08-17T01:08:24;22.40;38.30
22827;DHT22;11580;52.562;13.418;2023-08-17T01:10:59;22.30;37.60
22827;DHT22;11580;52.562;13.418;2023-08-17T01:13:36;22.30;38.60
22827;DHT22;11580;52.562;13.418;2023-08-17T01:16:13;22.30;38.40
22827;DHT22;11580;52.562;13.418;2023-08-17T01:18:48;22.30;38.50
22827;DHT22;11580;52.562;13.418;2023-08-17T01:21:18;22.30;38.30
22827;DHT22;11580;52.562;13.418;2023-08-17T01:23:51;22.30;38.00
22827;DHT22;11580;52.562;13.418;2023-08-17T01:26:18;22.20;39.00
22827;DHT22;11580;52.562;13.418;2023-08-17T01:28:46;22.30;38.10
22827;DHT22;11580;52.562;13.418;2023-08-17T01:31:20;22.20;38.30
22827;DHT22;11580;52.562;13.418;2023-08-17T01:33:57;22.20;38.50
22827;DHT22;11580;52.562;13.418;2023-08-17T01:36:33;22.30;38.60
22827;DHT22;11580;52.562;13.418;2023-08-17T01:39:08;22.20;39.20
22827;DHT22;11580;52.562;13.418;2023-08-17T01:41:37;22.20;38.50
22827;DHT22;11580;52.562;13.418;2023-08-17T01:44:06;22.20;38.80
22827;DHT22;11580;52.562;13.418;2023-08-17T01:46:34;22.20;38.10
22827;DHT22;11580;52.562;13.418;2023-08-17T01:49:01;22.10;38.10
22827;DHT22;11580;52.562;13.418;2023-08-17T01:51:30;22.10;38.20
22827;DHT22;11580;52.562;13.418;2023-08-17T01:53:57;22.10;38.40
22827;DHT22;11580;52.562;13.418;2023-08-17T01:56:25;22.10;38.40
22827;DHT22;11580;52.562;13.418;2023-08-17T01:58:53;22.00;38.40
22827;DHT22;11580;52.562;13.418;2023-08-17T02:01:22;22.00;38.40
22827;DHT22;11580;52.562;13.418;2023-08-17T02:03:49;22.00;38.30
22827;DHT22;11580;52.562;13.418;2023-08-17T02:06:16;22.00;39.10
22827;DHT22;11580;52.562;13.418;2023-08-17T02:08:44;21.90;38.20
22827;DHT22;11580;52.562;13.418;2023-08-17T02:11:12;21.90;38.20
22827;DHT22;11580;52.562;13.418;2023-08-17T02:13:40;21.90;38.20
22827;DHT22;11580;52.562;13.418;2023-08-17T02:16:07;21.90;38.30
22827;DHT22;11580;52.562;13.418;2023-08-17T02:18:35;21.80;38.10
22827;DHT22;11580;52.562;13.418;2023-08-17T02:21:02;21.80;38.90
22827;DHT22;11580;52.562;13.418;2023-08-17T02:23:29;21.80;38.10
22827;DHT22;11580;52.562;13.418;2023-08-17T02:25:56;21.80;38.20
22827;DHT22;11580;52.562;13.418;2023-08-17T02:28:23;21.80;38.30
22827;DHT22;11580;52.562;13.418;2023-08-17T02:30:56;21.80;38.40
22827;DHT22;11580;52.562;13.418;2023-08-17T02:33:27;21.80;39.90
22827;DHT22;11580;52.562;13.418;2023-08-17T02:35:54;21.80;39.20
22827;DHT22;11580;52.562;13.418;2023-08-17T02:38:22;21.70;38.40
22827;DHT22;11580;52.562;13.418;2023-08-17T02:40:49;21.70;38.40
22827;DHT22;11580;52.562;13.418;2023-08-17T02:43:16;21.70;38.40
22827;DHT22;11580;52.562;13.418;2023-08-17T02:45:44;21.70;38.50
22827;DHT22;11580;52.562;13.418;2023-08-17T02:48:12;21.70;38.50
22827;DHT22;11580;52.562;13.418;2023-08-17T02:50:40;21.70;38.70
22827;DHT22;11580;52.562;13.418;2023-08-17T02:53:07;21.70;38.50
22827;DHT22;11580;52.562;13.418;2023-08-17T02:55:34;21.70;38.40
22827;DHT22;11580;52.562;13.418;2023-08-17T02:58:02;21.60;38.30
22827;DHT22;11580;52.562;13.418;2023-08-17T03:00:29;21.60;38.30
22827;DHT22;11580;52.562;13.418;2023-08-17T03:02:57;21.60;38.30
22827;DHT22;11580;52.562;13.418;2023-08-17T03:05:26;21.60;38.20
22827;DHT22;11580;52.562;13.418;2023-08-17T03:07:54;21.60;39.10
22827;DHT22;11580;52.562;13.418;2023-08-17T03:10:21;21.60;38.00
22827;DHT22;11580;52.562;13.418;2023-08-17T03:12:50;21.60;38.00
22827;DHT22;11580;52.562;13.418;2023-08-17T03:15:17;21.60;38.00
22827;DHT22;11580;52.562;13.418;2023-08-17T03:17:45;21.60;38.00
22827;DHT22;11580;52.562;13.418;2023-08-17T03:20:12;21.60;38.00
22827;DHT22;11580;52.562;13.418;2023-08-17T03:22:40;21.60;38.00
22827;DHT22;11580;52.562;13.418;2023-08-17T03:25:08;21.60;38.00
22827;DHT22;11580;52.562;13.418;2023-08-17T03:27:36;21.60;38.00
22827;DHT22;11580;52.562;13.418;2023-08-17T03:30:04;21.60;38.00
22827;DHT22;11580;52.562;13.418;2023-08-17T03:32:33;21.60;38.00
22827;DHT22;11580;52.562;13.418;2023-08-17T03:35:00;21.60;38.00
22827;DHT22;11580;52.562;13.418;2023-08-17T03:37:27;21.60;37.70
22827;DHT22;11580;52.562;13.418;2023-08-17T03:39:56;21.60;37.50
22827;DHT22;11580;52.562;13.418;2023-08-17T03:42:23;21.60;37.30
22827;DHT22;11580;52.562;13.418;2023-08-17T03:44:50;21.60;37.20
22827;DHT22;11580;52.562;13.418;2023-08-17T03:47:18;21.70;37.20
22827;DHT22;11580;52.562;13.418;2023-08-17T03:49:45;21.60;37.00
22827;DHT22;11580;52.562;13.418;2023-08-17T03:52:13;21.70;37.00
22827;DHT22;11580;52.562;13.418;2023-08-17T03:54:40;21.70;36.80
22827;DHT22;11580;52.562;13.418;2023-08-17T03:57:08;21.70;36.70
22827;DHT22;11580;52.562;13.418;2023-08-17T03:59:36;21.70;36.50
22827;DHT22;11580;52.562;13.418;2023-08-17T04:02:03;21.70;36.40
22827;DHT22;11580;52.562;13.418;2023-08-17T04:04:30;21.70;36.20
22827;DHT22;11580;52.562;13.418;2023-08-17T04:06:58;21.80;36.20
22827;DHT22;11580;52.562;13.418;2023-08-17T04:09:25;21.80;36.10
22827;DHT22;11580;52.562;13.418;2023-08-17T04:11:52;21.90;36.00
22827;DHT22;11580;52.562;13.418;2023-08-17T04:14:21;21.90;35.80
22827;DHT22;11580;52.562;13.418;2023-08-17T04:16:49;21.90;35.70
22827;DHT22;11580;52.562;13.418;2023-08-17T04:19:16;22.00;35.80
22827;DHT22;11580;52.562;13.418;2023-08-17T04:21:43;22.00;35.90
22827;DHT22;11580;52.562;13.418;2023-08-17T04:24:11;22.20;36.10
22827;DHT22;11580;52.562;13.418;2023-08-17T04:26:38;22.30;36.10
22827;DHT22;11580;52.562;13.418;2023-08-17T04:29:05;22.50;36.00
22827;DHT22;11580;52.562;13.418;2023-08-17T04:31:34;22.60;36.40
22827;DHT22;11580;52.562;13.418;2023-08-17T04:34:02;22.80;35.30
22827;DHT22;11580;52.562;13.418;2023-08-17T04:36:30;23.00;35.20
22827;DHT22;11580;52.562;13.418;2023-08-17T04:38:57;23.20;34.80
22827;DHT22;11580;52.562;13.418;2023-08-17T04:41:25;23.30;34.30
22827;DHT22;11580;52.562;13.418;2023-08-17T04:43:53;23.40;33.80
22827;DHT22;11580;52.562;13.418;2023-08-17T04:46:21;23.50;33.50
22827;DHT22;11580;52.562;13.418;2023-08-17T04:48:49;23.50;33.40
22827;DHT22;11580;52.562;13.418;2023-08-17T04:51:18;23.60;33.20
22827;DHT22;11580;52.562;13.418;2023-08-17T04:53:45;23.70;33.40
22827;DHT22;11580;52.562;13.418;2023-08-17T04:56:12;23.70;33.20
22827;DHT22;11580;52.562;13.418;2023-08-17T04:58:39;23.80;33.10
22827;DHT22;11580;52.562;13.418;2023-08-17T05:01:08;23.80;32.90
22827;DHT22;11580;52.562;13.418;2023-08-17T05:03:36;23.90;32.70
22827;DHT22;11580;52.562;13.418;2023-08-17T05:06:05;23.90;32.60
22827;DHT22;11580;52.562;13.418;2023-08-17T05:08:33;23.90;32.40
22827;DHT22;11580;52.562;13.418;2023-08-17T05:11:00;23.90;32.40
22827;DHT22;11580;52.562;13.418;2023-08-17T05:13:28;23.90;33.20
22827;DHT22;11580;52.562;13.418;2023-08-17T05:15:59;23.90;33.20
22827;DHT22;11580;52.562;13.418;2023-08-17T05:18:27;23.90;32.40
22827;DHT22;11580;52.562;13.418;2023-08-17T05:20:54;23.90;32.50
22827;DHT22;11580;52.562;13.418;2023-08-17T05:23:22;23.90;32.60
22827;DHT22;11580;52.562;13.418;2023-08-17T05:25:51;23.90;32.20
22827;DHT22;11580;52.562;13.418;2023-08-17T05:28:18;23.90;32.50
22827;DHT22;11580;52.562;13.418;2023-08-17T05:30:46;24.00;32.40
22827;DHT22;11580;52.562;13.418;2023-08-17T05:33:13;24.00;32.30
22827;DHT22;11580;52.562;13.418;2023-08-17T05:35:40;24.00;33.10
22827;DHT22;11580;52.562;13.418;2023-08-17T05:38:09;24.00;32.90
22827;DHT22;11580;52.562;13.418;2023-08-17T05:40:38;24.00;32.80
22827;DHT22;11580;52.562;13.418;2023-08-17T05:43:05;24.10;32.00
22827;DHT22;11580;52.562;13.418;2023-08-17T05:45:32;24.10;32.10
22827;DHT22;11580;52.562;13.418;2023-08-17T05:48:02;24.10;32.00
22827;DHT22;11580;52.562;13.418;2023-08-17T05:50:30;24.10;32.10
22827;DHT22;11580;52.562;13.418;2023-08-17T05:52:57;24.10;32.10
22827;DHT22;11580;52.562;13.418;2023-08-17T05:55:24;24.00;32.00
22827;DHT22;11580;52.562;13.418;2023-08-17T05:57:53;24.20;32.80
22827;DHT22;11580;52.562;13.418;2023-08-17T06:00:20;24.20;32.00
22827;DHT22;11580;52.562;13.418;2023-08-17T06:02:47;24.30;32.20
22827;DHT22;11580;52.562;13.418;2023-08-17T06:05:17;24.30;33.00
22827;DHT22;11580;52.562;13.418;2023-08-17T06:07:44;24.40;32.20
22827;DHT22;11580;52.562;13.418;2023-08-17T06:10:12;24.50;33.10
22827;DHT22;11580;52.562;13.418;2023-08-17T06:12:39;24.60;32.50
22827;DHT22;11580;52.562;13.418;2023-08-17T06:15:08;24.70;32.60
22827;DHT22;11580;52.562;13.418;2023-08-17T06:17:36;24.90;32.20
22827;DHT22;11580;52.562;13.418;2023-08-17T06:20:03;25.00;33.10
22827;DHT22;11580;52.562;13.418;2023-08-17T06:22:35;25.20;32.10
22827;DHT22;11580;52.562;13.418;2023-08-17T06:25:02;25.30;32.10
22827;DHT22;11580;52.562;13.418;2023-08-17T06:27:31;25.40;31.80
22827;DHT22;11580;52.562;13.418;2023-08-17T06:29:59;25.60;31.70
22827;DHT22;11580;52.562;13.418;2023-08-17T06:32:27;25.70;31.40
22827;DHT22;11580;52.562;13.418;2023-08-17T06:34:54;25.80;31.00
22827;DHT22;11580;52.562;13.418;2023-08-17T06:37:23;26.00;31.10
22827;DHT22;11580;52.562;13.418;2023-08-17T06:39:50;26.10;30.60
22827;DHT22;11580;52.562;13.418;2023-08-17T06:42:17;26.20;30.30
22827;DHT22;11580;52.562;13.418;2023-08-17T06:44:44;26.30;30.10
22827;DHT22;11580;52.562;13.418;2023-08-17T06:47:11;26.40;29.90
22827;DHT22;11580;52.562;13.418;2023-08-17T06:49:40;26.50;29.80
22827;DHT22;11580;52.562;13.418;2023-08-17T06:52:07;26.60;29.50
22827;DHT22;11580;52.562;13.418;2023-08-17T06:54:34;26.70;29.60
22827;DHT22;11580;52.562;13.418;2023-08-17T06:57:02;26.80;30.00
22827;DHT22;11580;52.562;13.418;2023-08-17T06:59:29;26.90;29.60
22827;DHT22;11580;52.562;13.418;2023-08-17T07:01:57;26.90;29.30
22827;DHT22;11580;52.562;13.418;2023-08-17T07:04:24;27.00;29.70
22827;DHT22;11580;52.562;13.418;2023-08-17T07:06:52;27.10;29.20
22827;DHT22;11580;52.562;13.418;2023-08-17T07:09:20;27.20;28.80
22827;DHT22;11580;52.562;13.418;2023-08-17T07:11:48;27.30;28.90
22827;DHT22;11580;52.562;13.418;2023-08-17T07:14:18;27.50;28.70
22827;DHT22;11580;52.562;13.418;2023-08-17T07:16:46;27.60;28.10
22827;DHT22;11580;52.562;13.418;2023-08-17T07:19:13;27.70;28.50
22827;DHT22;11580;52.562;13.418;2023-08-17T07:21:40;27.90;28.40
22827;DHT22;11580;52.562;13.418;2023-08-17T07:24:14;28.00;28.20
22827;DHT22;11580;52.562;13.418;2023-08-17T07:26:42;28.20;27.40
22827;DHT22;11580;52.562;13.418;2023-08-17T07:29:10;28.40;27.70
22827;DHT22;11580;52.562;13.418;2023-08-17T07:31:38;28.50;27.60
22827;DHT22;11580;52.562;13.418;2023-08-17T07:34:05;28.70;27.50
22827;DHT22;11580;52.562;13.418;2023-08-17T07:36:33;28.70;27.00
22827;DHT22;11580;52.562;13.418;2023-08-17T07:39:00;28.80;26.90
22827;DHT22;11580;52.562;13.418;2023-08-17T07:41:29;28.80;27.00
22827;DHT22;11580;52.562;13.418;2023-08-17T07:43:56;28.80;26.70
22827;DHT22;11580;52.562;13.418;2023-08-17T07:46:23;28.80;26.90
22827;DHT22;11580;52.562;13.418;2023-08-17T07:48:51;28.80;26.70
22827;DHT22;11580;52.562;13.418;2023-08-17T07:51:18;28.70;26.70
22827;DHT22;11580;52.562;13.418;2023-08-17T07:53:45;28.70;26.80
22827;DHT22;11580;52.562;13.418;2023-08-17T07:56:13;28.70;27.50
22827;DHT22;11580;52.562;13.418;2023-08-17T07:58:41;28.70;26.80
22827;DHT22;11580;52.562;13.418;2023-08-17T08:01:07;28.70;26.60
22827;DHT22;11580;52.562;13.418;2023-08-17T08:03:34;28.70;27.00
22827;DHT22;11580;52.562;13.418;2023-08-17T08:06:02;28.80;26.50
22827;DHT22;11580;52.562;13.418;2023-08-17T08:08:29;28.70;26.50
22827;DHT22;11580;52.562;13.418;2023-08-17T08:10:56;28.70;26.40
22827;DHT22;11580;52.562;13.418;2023-08-17T08:13:23;28.70;26.50
22827;DHT22;11580;52.562;13.418;2023-08-17T08:15:52;28.70;26.60
22827;DHT22;11580;52.562;13.418;2023-08-17T08:18:19;28.80;26.50
22827;DHT22;11580;52.562;13.418;2023-08-17T08:20:46;28.80;26.70
22827;DHT22;11580;52.562;13.418;2023-08-17T08:23:14;28.80;26.60
22827;DHT22;11580;52.562;13.418;2023-08-17T08:25:41;28.80;26.80
22827;DHT22;11580;52.562;13.418;2023-08-17T08:28:09;28.80;27.50
22827;DHT22;11580;52.562;13.418;2023-08-17T08:30:36;28.90;27.10
22827;DHT22;11580;52.562;13.418;2023-08-17T08:33:05;29.00;27.00
22827;DHT22;11580;52.562;13.418;2023-08-17T08:35:32;29.10;27.40
22827;DHT22;11580;52.562;13.418;2023-08-17T08:37:59;29.30;26.90
22827;DHT22;11580;52.562;13.418;2023-08-17T08:40:28;29.30;27.30
22827;DHT22;11580;52.562;13.418;2023-08-17T08:42:56;29.40;26.80
22827;DHT22;11580;52.562;13.418;2023-08-17T08:45:25;29.60;27.30
22827;DHT22;11580;52.562;13.418;2023-08-17T08:47:54;29.70;26.60
22827;DHT22;11580;52.562;13.418;2023-08-17T08:50:26;29.70;26.20
22827;DHT22;11580;52.562;13.418;2023-08-17T08:52:59;29.70;26.00
22827;DHT22;11580;52.562;13.418;2023-08-17T08:55:29;29.60;26.60
22827;DHT22;11580;52.562;13.418;2023-08-17T08:57:59;29.60;26.10
22827;DHT22;11580;52.562;13.418;2023-08-17T09:00:27;29.50;26.10
22827;DHT22;11580;52.562;13.418;2023-08-17T09:02:55;29.40;26.30
22827;DHT22;11580;52.562;13.418;2023-08-17T09:05:25;29.30;26.50
22827;DHT22;11580;52.562;13.418;2023-08-17T09:07:52;29.20;26.60
22827;DHT22;11580;52.562;13.418;2023-08-17T09:10:21;29.20;27.00
22827;DHT22;11580;52.562;13.418;2023-08-17T09:12:48;29.10;27.10
22827;DHT22;11580;52.562;13.418;2023-08-17T09:15:15;29.10;27.20
22827;DHT22;11580;52.562;13.418;2023-08-17T09:17:43;29.10;27.10
22827;DHT22;11580;52.562;13.418;2023-08-17T09:20:11;29.10;27.10
22827;DHT22;11580;52.562;13.418;2023-08-17T09:22:41;29.10;27.10
22827;DHT22;11580;52.562;13.418;2023-08-17T09:25:10;29.10;27.40
22827;DHT22;11580;52.562;13.418;2023-08-17T09:27:38;29.10;27.90
22827;DHT22;11580;52.562;13.418;2023-08-17T09:30:11;29.00;27.30
22827;DHT22;11580;52.562;13.418;2023-08-17T09:32:38;29.00;27.30
22827;DHT22;11580;52.562;13.418;2023-08-17T09:35:06;28.90;27.60
22827;DHT22;11580;52.562;13.418;2023-08-17T09:37:34;28.90;28.00
22827;DHT22;11580;52.562;13.418;2023-08-17T09:40:03;28.90;28.70
22827;DHT22;11580;52.562;13.418;2023-08-17T09:42:34;28.90;28.10
22827;DHT22;11580;52.562;13.418;2023-08-17T09:45:03;29.00;28.10
22827;DHT22;11580;52.562;13.418;2023-08-17T09:47:30;29.10;28.20
22827;DHT22;11580;52.562;13.418;2023-08-17T09:49:58;29.30;28.10
22827;DHT22;11580;52.562;13.418;2023-08-17T09:52:25;29.40;27.90
22827;DHT22;11580;52.562;13.418;2023-08-17T09:54:52;29.50;27.80
22827;DHT22;11580;52.562;13.418;2023-08-17T09:57:22;29.60;27.70
22827;DHT22;11580;52.562;13.418;2023-08-17T09:59:51;29.80;27.30
22827;DHT22;11580;52.562;13.418;2023-08-17T10:02:22;29.90;27.50
22827;DHT22;11580;52.562;13.418;2023-08-17T10:04:52;30.10;27.40
22827;DHT22;11580;52.562;13.418;2023-08-17T10:07:21;30.20;27.30
22827;DHT22;11580;52.562;13.418;2023-08-17T10:09:58;30.40;27.00
22827;DHT22;11580;52.562;13.418;2023-08-17T10:12:34;30.60;27.10
22827;DHT22;11580;52.562;13.418;2023-08-17T10:15:07;30.70;26.20
22827;DHT22;11580;52.562;13.418;2023-08-17T10:17:43;30.80;26.00
22827;DHT22;11580;52.562;13.418;2023-08-17T10:20:13;30.80;25.70
22827;DHT22;11580;52.562;13.418;2023-08-17T10:22:44;30.90;25.50
22827;DHT22;11580;52.562;13.418;2023-08-17T10:25:17;30.80;25.50
22827;DHT22;11580;52.562;13.418;2023-08-17T10:27:49;30.70;25.70
22827;DHT22;11580;52.562;13.418;2023-08-17T10:30:18;30.70;25.70
22827;DHT22;11580;52.562;13.418;2023-08-17T10:32:45;30.60;25.80
22827;DHT22;11580;52.562;13.418;2023-08-17T10:35:15;30.50;26.40
22827;DHT22;11580;52.562;13.418;2023-08-17T10:37:42;30.30;25.80
22827;DHT22;11580;52.562;13.418;2023-08-17T10:40:10;30.20;26.00
22827;DHT22;11580;52.562;13.418;2023-08-17T10:42:38;30.10;26.20
22827;DHT22;11580;52.562;13.418;2023-08-17T10:45:27;30.00;27.00
22827;DHT22;11580;52.562;13.418;2023-08-17T10:48:26;29.80;26.50
22827;DHT22;11580;52.562;13.418;2023-08-17T10:51:02;29.80;26.70
22827;DHT22;11580;52.562;13.418;2023-08-17T10:53:37;29.70;27.30
22827;DHT22;11580;52.562;13.418;2023-08-17T10:56:11;29.70;27.00
22827;DHT22;11580;52.562;13.418;2023-08-17T10:58:40;29.80;27.10
22827;DHT22;11580;52.562;13.418;2023-08-17T11:01:11;29.80;27.00
22827;DHT22;11580;52.562;13.418;2023-08-17T11:03:41;29.80;26.80
22827;DHT22;11580;52.562;13.418;2023-08-17T11:06:17;29.90;26.80
22827;DHT22;11580;52.562;13.418;2023-08-17T11:08:52;29.80;26.60
22827;DHT22;11580;52.562;13.418;2023-08-17T11:11:21;29.80;26.70
22827;DHT22;11580;52.562;13.418;2023-08-17T11:13:49;29.80;26.80
22827;DHT22;11580;52.562;13.418;2023-08-17T11:16:20;29.80;26.80
22827;DHT22;11580;52.562;13.418;2023-08-17T11:18:49;29.70;27.00
22827;DHT22;11580;52.562;13.418;2023-08-17T11:21:17;29.70;27.10
22827;DHT22;11580;52.562;13.418;2023-08-17T11:23:44;29.60;27.60
22827;DHT22;11580;52.562;13.418;2023-08-17T11:26:12;29.50;27.10
22827;DHT22;11580;52.562;13.418;2023-08-17T11:28:42;29.50;27.40
22827;DHT22;11580;52.562;13.418;2023-08-17T11:31:12;29.40;27.50
22827;DHT22;11580;52.562;13.418;2023-08-17T11:33:42;29.40;27.80
22827;DHT22;11580;52.562;13.418;2023-08-17T11:36:10;29.30;28.40
22827;DHT22;11580;52.562;13.418;2023-08-17T11:38:38;29.30;27.90
22827;DHT22;11580;52.562;13.418;2023-08-17T11:41:07;29.30;27.90
22827;DHT22;11580;52.562;13.418;2023-08-17T11:43:34;29.30;28.00
22827;DHT22;11580;52.562;13.418;2023-08-17T11:46:02;29.40;28.20
22827;DHT22;11580;52.562;13.418;2023-08-17T11:48:31;29.50;28.30
22827;DHT22;11580;52.562;13.418;2023-08-17T11:50:59;29.60;28.20
22827;DHT22;11580;52.562;13.418;2023-08-17T11:53:33;29.70;28.40
22827;DHT22;11580;52.562;13.418;2023-08-17T11:56:01;29.90;28.10
22827;DHT22;11580;52.562;13.418;2023-08-17T11:58:43;30.00;28.10
22827;DHT22;11580;52.562;13.418;2023-08-17T12:01:13;30.20;27.90
22827;DHT22;11580;52.562;13.418;2023-08-17T12:03:41;30.30;27.70
22827;DHT22;11580;52.562;13.418;2023-08-17T12:06:10;30.40;27.50
22827;DHT22;11580;52.562;13.418;2023-08-17T12:08:38;30.60;27.60
22827;DHT22;11580;52.562;13.418;2023-08-17T12:11:08;30.60;27.70
22827;DHT22;11580;52.562;13.418;2023-08-17T12:13:35;30.80;28.10
22827;DHT22;11580;52.562;13.418;2023-08-17T12:16:03;30.80;27.30
22827;DHT22;11580;52.562;13.418;2023-08-17T12:18:32;30.90;27.30
22827;DHT22;11580;52.562;13.418;2023-08-17T12:21:00;30.90;27.20
22827;DHT22;11580;52.562;13.418;2023-08-17T12:23:28;31.00;27.50
22827;DHT22;11580;52.562;13.418;2023-08-17T12:25:55;31.10;27.30
22827;DHT22;11580;52.562;13.418;2023-08-17T12:28:23;31.20;27.50
22827;DHT22;11580;52.562;13.418;2023-08-17T12:30:58;31.40;27.20
22827;DHT22;11580;52.562;13.418;2023-08-17T12:33:26;31.50;27.50
22827;DHT22;11580;52.562;13.418;2023-08-17T12:35:54;31.70;27.10
22827;DHT22;11580;52.562;13.418;2023-08-17T12:38:23;31.70;26.80
22827;DHT22;11580;52.562;13.418;2023-08-17T12:40:52;31.90;26.70
22827;DHT22;11580;52.562;13.418;2023-08-17T12:43:19;32.00;26.70
22827;DHT22;11580;52.562;13.418;2023-08-17T12:45:46;32.00;26.70
22827;DHT22;11580;52.562;13.418;2023-08-17T12:48:13;32.00;26.60
22827;DHT22;11580;52.562;13.418;2023-08-17T12:50:41;32.10;26.60
22827;DHT22;11580;52.562;13.418;2023-08-17T12:53:08;32.10;26.40
22827;DHT22;11580;52.562;13.418;2023-08-17T12:55:35;32.10;26.40
22827;DHT22;11580;52.562;13.418;2023-08-17T12:58:04;32.10;26.40
22827;DHT22;11580;52.562;13.418;2023-08-17T13:00:31;32.10;26.60
22827;DHT22;11580;52.562;13.418;2023-08-17T13:02:58;32.10;26.60
22827;DHT22;11580;52.562;13.418;2023-08-17T13:05:25;32.20;26.50
22827;DHT22;11580;52.562;13.418;2023-08-17T13:07:53;32.20;26.50
22827;DHT22;11580;52.562;13.418;2023-08-17T13:10:20;32.20;26.40
22827;DHT22;11580;52.562;13.418;2023-08-17T13:12:47;32.30;26.30
22827;DHT22;11580;52.562;13.418;2023-08-17T13:15:16;32.30;26.80
22827;DHT22;11580;52.562;13.418;2023-08-17T13:17:43;32.30;26.10
22827;DHT22;11580;52.562;13.418;2023-08-17T13:20:11;32.30;26.00
22827;DHT22;11580;52.562;13.418;2023-08-17T13:22:38;32.30;26.00
22827;DHT22;11580;52.562;13.418;2023-08-17T13:25:06;32.30;26.00
22827;DHT22;11580;52.562;13.418;2023-08-17T13:27:33;32.30;25.70
22827;DHT22;11580;52.562;13.418;2023-08-17T13:30:01;32.30;25.80
22827;DHT22;11580;52.562;13.418;2023-08-17T13:32:29;32.30;25.70
22827;DHT22;11580;52.562;13.418;2023-08-17T13:34:56;32.30;25.20
22827;DHT22;11580;52.562;13.418;2023-08-17T13:37:24;32.30;25.30
22827;DHT22;11580;52.562;13.418;2023-08-17T13:39:51;32.30;25.60
22827;DHT22;11580;52.562;13.418;2023-08-17T13:42:18;32.20;26.20
22827;DHT22;11580;52.562;13.418;2023-08-17T13:44:46;32.20;26.20
22827;DHT22;11580;52.562;13.418;2023-08-17T13:47:13;32.20;25.70
22827;DHT22;11580;52.562;13.418;2023-08-17T13:49:41;32.10;25.70
22827;DHT22;11580;52.562;13.418;2023-08-17T13:52:08;32.10;25.70
22827;DHT22;11580;52.562;13.418;2023-08-17T13:54:36;32.00;25.80
22827;DHT22;11580;52.562;13.418;2023-08-17T13:57:03;32.00;25.80
22827;DHT22;11580;52.562;13.418;2023-08-17T13:59:31;31.90;25.90
22827;DHT22;11580;52.562;13.418;2023-08-17T14:01:58;31.90;26.10
22827;DHT22;11580;52.562;13.418;2023-08-17T14:04:25;31.90;26.10
22827;DHT22;11580;52.562;13.418;2023-08-17T14:06:54;31.80;26.10
22827;DHT22;11580;52.562;13.418;2023-08-17T14:09:21;31.80;26.00
22827;DHT22;11580;52.562;13.418;2023-08-17T14:11:48;31.80;26.00
22827;DHT22;11580;52.562;13.418;2023-08-17T14:14:15;31.70;26.00
22827;DHT22;11580;52.562;13.418;2023-08-17T14:16:42;31.70;26.20
22827;DHT22;11580;52.562;13.418;2023-08-17T14:19:10;31.60;26.40
22827;DHT22;11580;52.562;13.418;2023-08-17T14:21:37;31.60;26.50
22827;DHT22;11580;52.562;13.418;2023-08-17T14:24:06;31.60;26.50
22827;DHT22;11580;52.562;13.418;2023-08-17T14:26:33;31.60;26.20
22827;DHT22;11580;52.562;13.418;2023-08-17T14:29:01;31.60;26.30
22827;DHT22;11580;52.562;13.418;2023-08-17T14:31:28;31.60;26.40
22827;DHT22;11580;52.562;13.418;2023-08-17T14:33:55;31.60;26.90
22827;DHT22;11580;52.562;13.418;2023-08-17T14:36:22;31.60;26.40
22827;DHT22;11580;52.562;13.418;2023-08-17T14:38:50;31.70;26.90
22827;DHT22;11580;52.562;13.418;2023-08-17T14:41:18;31.70;26.30
22827;DHT22;11580;52.562;13.418;2023-08-17T14:43:45;31.70;26.20
22827;DHT22;11580;52.562;13.418;2023-08-17T14:46:13;31.70;26.20
22827;DHT22;11580;52.562;13.418;2023-08-17T14:48:40;31.70;26.30
22827;DHT22;11580;52.562;13.418;2023-08-17T14:51:07;31.70;26.40
22827;DHT22;11580;52.562;13.418;2023-08-17T14:53:34;31.70;26.50
22827;DHT22;11580;52.562;13.418;2023-08-17T14:56:01;31.70;26.30
22827;DHT22;11580;52.562;13.418;2023-08-17T14:58:30;31.70;26.20
22827;DHT22;11580;52.562;13.418;2023-08-17T15:00:57;31.80;26.00
22827;DHT22;11580;52.562;13.418;2023-08-17T15:03:24;31.80;26.00
22827;DHT22;11580;52.562;13.418;2023-08-17T15:05:52;31.80;26.50
22827;DHT22;11580;52.562;13.418;2023-08-17T15:08:19;31.80;25.80
22827;DHT22;11580;52.562;13.418;2023-08-17T15:10:47;31.80;25.70
22827;DHT22;11580;52.562;13.418;2023-08-17T15:13:14;31.70;25.60
22827;DHT22;11580;52.562;13.418;2023-08-17T15:15:43;31.70;25.70
22827;DHT22;11580;52.562;13.418;2023-08-17T15:18:10;31.60;26.20
22827;DHT22;11580;52.562;13.418;2023-08-17T15:20:37;31.60;25.70
22827;DHT22;11580;52.562;13.418;2023-08-17T15:23:04;31.40;26.40